createdAt,value
2018-10-06T00:02:10.337Z,7.50
2018-10-06T00:04:38.496Z,7.50
2018-10-06T00:07:06.764Z,7.50
2018-10-06T00:09:34.850Z,7.40
2018-10-06T00:12:03.057Z,7.40
2018-10-06T00:14:31.194Z,7.40
2018-10-06T00:16:59.479Z,7.40
2018-10-06T00:19:27.590Z,7.30
2018-10-06T00:21:55.763Z,7.30
2018-10-06T00:24:24.825Z,7.30
2018-10-06T00:26:52.944Z,7.30
2018-10-06T00:29:21.174Z,7.40
2018-10-06T00:31:49.374Z,7.30
2018-10-06T00:34:17.551Z,7.30
2018-10-06T00:36:45.601Z,7.30
2018-10-06T00:39:13.709Z,7.30
2018-10-06T00:41:41.965Z,7.30
2018-10-06T00:44:10.030Z,7.30
2018-10-06T00:46:38.175Z,7.30
2018-10-06T00:49:06.892Z,7.30
2018-10-06T00:51:34.978Z,7.30
2018-10-06T00:54:03.149Z,7.20
2018-10-06T00:56:31.244Z,7.30
2018-10-06T00:58:59.296Z,7.20
2018-10-06T01:01:27.524Z,7.20
2018-10-06T01:03:55.868Z,7.30
2018-10-06T01:06:24.249Z,7.30
2018-10-06T01:08:52.395Z,7.20
2018-10-06T01:11:20.902Z,7.30
2018-10-06T01:13:48.990Z,7.30
2018-10-06T01:16:17.206Z,7.30
2018-10-06T01:18:45.482Z,7.30
2018-10-06T01:21:13.534Z,7.30
2018-10-06T01:23:41.730Z,7.30
2018-10-06T01:26:09.896Z,7.20
2018-10-06T01:28:37.962Z,7.20
2018-10-06T01:31:05.970Z,7.30
2018-10-06T01:33:34.101Z,7.30
2018-10-06T01:36:02.311Z,7.20
2018-10-06T01:38:30.505Z,7.20
2018-10-06T01:40:58.610Z,7.20
2018-10-06T01:43:26.743Z,7.20
2018-10-06T01:45:54.954Z,7.20
2018-10-06T01:48:23.013Z,7.20
2018-10-06T01:50:51.172Z,7.20
2018-10-06T01:53:19.298Z,7.20
2018-10-06T01:55:47.451Z,7.20
2018-10-06T01:58:15.552Z,7.20
2018-10-06T02:00:43.706Z,7.20
2018-10-06T02:03:11.940Z,7.20
2018-10-06T02:05:40.079Z,7.10
2018-10-06T02:08:08.262Z,7.10
2018-10-06T02:10:36.606Z,7.10
2018-10-06T02:13:04.714Z,7.10
2018-10-06T02:15:32.902Z,7.20
2018-10-06T02:18:00.945Z,7.10
2018-10-06T02:20:29.038Z,7.10
2018-10-06T02:22:57.197Z,7.10
2018-10-06T02:25:25.306Z,7.10
2018-10-06T02:27:53.436Z,7.10
2018-10-06T02:30:21.554Z,7.10
2018-10-06T02:32:49.890Z,7.10
2018-10-06T02:35:17.982Z,7.10
2018-10-06T02:37:46.077Z,7.10
2018-10-06T02:40:14.128Z,7.00
2018-10-06T02:42:42.298Z,7.10
2018-10-06T02:45:11.129Z,7.00
2018-10-06T02:47:39.459Z,7.00
2018-10-06T02:50:07.742Z,7.00
2018-10-06T02:52:35.799Z,7.00
2018-10-06T02:55:04.103Z,7.00
2018-10-06T02:57:32.482Z,7.00
2018-10-06T03:00:00.566Z,7.00
2018-10-06T03:02:28.654Z,7.00
2018-10-06T03:04:56.872Z,7.00
2018-10-06T03:07:25.118Z,7.00
2018-10-06T03:09:53.179Z,7.00
2018-10-06T03:12:21.438Z,7.00
2018-10-06T03:14:49.586Z,7.00
2018-10-06T03:17:17.710Z,7.00
2018-10-06T03:19:46.702Z,7.00
2018-10-06T03:22:14.973Z,7.00
2018-10-06T03:24:43.078Z,7.00
2018-10-06T03:27:11.338Z,7.00
2018-10-06T03:29:39.391Z,7.10
2018-10-06T03:32:07.634Z,7.10
2018-10-06T03:34:36.010Z,7.10
2018-10-06T03:37:04.058Z,7.10
2018-10-06T03:39:32.267Z,7.10
2018-10-06T03:42:00.539Z,7.10
2018-10-06T03:44:28.613Z,7.10
2018-10-06T03:46:57.253Z,7.10
2018-10-06T03:49:25.671Z,7.10
2018-10-06T03:51:53.943Z,7.10
2018-10-06T03:54:22.999Z,7.10
2018-10-06T03:56:51.130Z,7.10
2018-10-06T03:59:19.690Z,7.20
2018-10-06T04:01:47.749Z,7.20
2018-10-06T04:04:15.988Z,7.10
2018-10-06T04:06:44.157Z,7.20
2018-10-06T04:09:12.255Z,7.20
2018-10-06T04:11:40.792Z,7.20
2018-10-06T04:14:09.012Z,7.20
2018-10-06T04:16:37.334Z,7.20
2018-10-06T04:19:05.464Z,7.20
2018-10-06T04:21:38.825Z,7.20
2018-10-06T04:24:06.930Z,7.30
2018-10-06T04:26:35.718Z,7.30
2018-10-06T04:29:03.698Z,7.20
2018-10-06T04:31:31.966Z,7.30
2018-10-06T04:34:00.646Z,7.30
2018-10-06T04:36:28.973Z,7.30
2018-10-06T04:38:57.424Z,7.30
2018-10-06T04:41:25.594Z,7.30
2018-10-06T04:43:53.739Z,7.30
2018-10-06T04:46:21.869Z,7.30
2018-10-06T04:48:49.941Z,7.30
2018-10-06T04:51:18.174Z,7.30
2018-10-06T04:53:46.325Z,7.30
2018-10-06T04:56:14.822Z,7.30
2018-10-06T04:58:43.011Z,7.30
2018-10-06T05:01:11.143Z,7.30
2018-10-06T05:03:39.303Z,7.30
2018-10-06T05:06:07.710Z,7.30
2018-10-06T05:08:35.786Z,7.30
2018-10-06T05:11:03.868Z,7.30
2018-10-06T05:13:32.012Z,7.30
2018-10-06T05:16:00.052Z,7.30
2018-10-06T05:18:28.683Z,7.30
2018-10-06T05:20:56.860Z,7.30
2018-10-06T05:23:25.072Z,7.30
2018-10-06T05:25:53.226Z,7.30
2018-10-06T05:28:21.902Z,7.30
2018-10-06T05:30:50.264Z,7.30
2018-10-06T05:33:19.659Z,7.30
2018-10-06T05:35:48.016Z,7.30
2018-10-06T05:38:16.225Z,7.40
2018-10-06T05:40:44.376Z,7.40
2018-10-06T05:43:12.599Z,7.30
2018-10-06T05:45:40.724Z,7.30
2018-10-06T05:48:08.874Z,7.40
2018-10-06T05:50:37.667Z,7.40
2018-10-06T05:53:05.878Z,7.40
2018-10-06T05:55:34.128Z,7.40
2018-10-06T05:58:02.372Z,7.40
2018-10-06T06:00:30.780Z,7.40
2018-10-06T06:02:59.045Z,7.40
2018-10-06T06:05:27.128Z,7.50
2018-10-06T06:07:56.070Z,7.50
2018-10-06T06:10:24.919Z,7.50
2018-10-06T06:12:53.036Z,7.60
2018-10-06T06:15:21.014Z,7.60
2018-10-06T06:17:49.405Z,7.60
2018-10-06T06:20:17.675Z,7.60
2018-10-06T06:22:46.518Z,7.60
2018-10-06T06:25:14.840Z,7.60
2018-10-06T06:27:42.943Z,7.60
2018-10-06T06:30:11.192Z,7.60
2018-10-06T06:32:39.364Z,7.60
2018-10-06T06:35:07.562Z,7.60
2018-10-06T06:37:36.796Z,7.60
2018-10-06T06:40:05.299Z,7.60
2018-10-06T06:42:33.439Z,7.60
2018-10-06T06:45:01.515Z,7.60
2018-10-06T06:47:29.619Z,7.60
2018-10-06T06:49:57.789Z,7.60
2018-10-06T06:52:25.918Z,7.60
2018-10-06T06:54:54.623Z,7.60
2018-10-06T06:57:22.833Z,7.60
2018-10-06T06:59:52.054Z,7.60
2018-10-06T07:02:21.777Z,7.60
2018-10-06T07:04:50.016Z,7.60
2018-10-06T07:07:18.271Z,7.70
2018-10-06T07:09:46.500Z,7.70
2018-10-06T07:12:14.775Z,7.70
2018-10-06T07:14:43.817Z,7.70
2018-10-06T07:17:13.585Z,7.70
2018-10-06T07:19:41.654Z,7.70
2018-10-06T07:22:10.023Z,7.70
2018-10-06T07:24:38.499Z,7.70
2018-10-06T07:27:07.410Z,7.70
2018-10-06T07:29:37.999Z,7.70
2018-10-06T07:32:06.168Z,7.70
2018-10-06T07:34:34.246Z,7.70
2018-10-06T07:37:02.431Z,7.70
2018-10-06T07:39:30.575Z,7.80
2018-10-06T07:41:59.568Z,7.90
2018-10-06T07:44:27.850Z,7.90
2018-10-06T07:46:56.043Z,7.90
2018-10-06T07:49:24.266Z,7.90
2018-10-06T07:51:52.619Z,7.90
2018-10-06T07:54:20.913Z,7.90
2018-10-06T07:56:49.090Z,8.00
2018-10-06T07:59:18.604Z,8.00
2018-10-06T08:01:46.844Z,8.10
2018-10-06T08:04:15.039Z,8.20
2018-10-06T08:06:43.112Z,8.30
2018-10-06T08:09:12.015Z,8.30
2018-10-06T08:11:40.868Z,8.40
2018-10-06T08:14:08.922Z,8.40
2018-10-06T08:16:37.050Z,8.40
2018-10-06T08:19:06.011Z,8.50
2018-10-06T08:21:34.818Z,8.50
2018-10-06T08:24:02.913Z,8.60
2018-10-06T08:26:31.118Z,8.70
2018-10-06T08:28:59.237Z,8.70
2018-10-06T08:31:27.383Z,8.70
2018-10-06T08:33:55.474Z,8.80
2018-10-06T08:36:23.655Z,8.80
2018-10-06T08:38:51.750Z,8.90
2018-10-06T08:41:20.557Z,9.00
2018-10-06T08:43:49.732Z,9.00
2018-10-06T08:46:18.278Z,9.10
2018-10-06T08:48:46.369Z,9.10
2018-10-06T08:51:14.568Z,9.10
2018-10-06T08:53:43.557Z,9.30
2018-10-06T08:56:12.058Z,9.20
2018-10-06T08:58:40.119Z,9.40
2018-10-06T09:01:09.984Z,9.50
2018-10-06T09:03:38.747Z,9.60
2018-10-06T09:06:06.840Z,9.60
2018-10-06T09:08:35.144Z,9.70
2018-10-06T09:11:03.424Z,9.80
2018-10-06T09:13:31.471Z,9.70
2018-10-06T09:15:59.583Z,9.60
2018-10-06T09:18:29.238Z,9.60
2018-10-06T09:20:57.431Z,9.70
2018-10-06T09:23:25.673Z,9.80
2018-10-06T09:25:54.539Z,9.70
2018-10-06T09:28:22.981Z,9.80
2018-10-06T09:30:51.440Z,9.80
2018-10-06T09:33:19.733Z,9.90
2018-10-06T09:35:48.169Z,10.00
2018-10-06T09:38:16.282Z,10.10
2018-10-06T09:40:44.663Z,10.20
2018-10-06T09:43:13.448Z,10.30
2018-10-06T09:45:41.524Z,10.20
2018-10-06T09:48:09.725Z,10.20
2018-10-06T09:50:37.839Z,10.20
2018-10-06T09:53:06.061Z,10.20
2018-10-06T09:55:34.267Z,10.30
2018-10-06T09:58:02.364Z,10.20
2018-10-06T10:01:37.421Z,10.30
2018-10-06T10:04:10.633Z,10.40
2018-10-06T10:06:38.972Z,10.40
2018-10-06T10:09:08.022Z,10.30
2018-10-06T10:11:36.202Z,10.40
2018-10-06T10:14:04.639Z,10.20
2018-10-06T10:16:33.187Z,10.20
2018-10-06T10:19:01.510Z,10.30
2018-10-06T10:21:29.875Z,10.30
2018-10-06T10:23:58.043Z,10.30
2018-10-06T10:26:26.227Z,10.30
2018-10-06T10:28:54.380Z,10.30
2018-10-06T10:31:22.454Z,10.30
2018-10-06T10:33:50.606Z,10.40
2018-10-06T10:36:18.703Z,10.40
2018-10-06T10:38:46.921Z,10.40
2018-10-06T10:41:15.079Z,10.40
2018-10-06T10:43:43.394Z,10.40
2018-10-06T10:46:11.625Z,10.50
2018-10-06T10:48:39.763Z,10.50
2018-10-06T10:51:07.934Z,10.40
2018-10-06T10:53:36.092Z,10.50
2018-10-06T10:56:04.821Z,10.50
2018-10-06T10:58:32.894Z,10.50
2018-10-06T11:01:01.003Z,10.50
2018-10-06T11:03:29.147Z,10.40
2018-10-06T11:05:57.235Z,10.50
2018-10-06T11:08:25.526Z,10.60
2018-10-06T11:10:53.807Z,10.50
2018-10-06T11:13:21.951Z,10.50
2018-10-06T11:15:50.062Z,10.50
2018-10-06T11:18:18.818Z,10.50
2018-10-06T11:20:47.046Z,10.50
2018-10-06T11:23:15.377Z,10.50
2018-10-06T11:25:43.534Z,10.40
2018-10-06T11:28:11.745Z,10.40
2018-10-06T11:30:39.778Z,10.50
2018-10-06T11:33:07.886Z,10.50
2018-10-06T11:35:36.105Z,10.50
2018-10-06T11:38:04.435Z,10.50
2018-10-06T11:40:32.630Z,10.60
2018-10-06T11:43:00.792Z,10.60
2018-10-06T11:45:28.971Z,10.50
2018-10-06T11:47:57.075Z,10.50
2018-10-06T11:50:25.248Z,10.50
2018-10-06T11:52:53.289Z,10.50
2018-10-06T11:55:21.558Z,10.40
2018-10-06T11:57:49.658Z,10.40
2018-10-06T12:00:17.975Z,10.40
2018-10-06T12:02:46.114Z,10.40
2018-10-06T12:05:14.223Z,10.40
2018-10-06T12:07:43.041Z,10.40
2018-10-06T12:10:11.640Z,10.30
2018-10-06T12:12:39.673Z,10.40
2018-10-06T12:15:08.643Z,10.40
2018-10-06T12:17:36.755Z,10.40
2018-10-06T12:20:05.274Z,10.50
2018-10-06T12:22:33.466Z,10.50
2018-10-06T12:25:02.213Z,10.50
2018-10-06T12:27:30.666Z,10.60
2018-10-06T12:29:58.830Z,10.60
2018-10-06T12:32:27.049Z,10.50
2018-10-06T12:34:55.410Z,10.50
2018-10-06T12:37:24.119Z,10.50
2018-10-06T12:39:52.207Z,10.40
2018-10-06T12:42:20.468Z,10.50
2018-10-06T12:44:48.427Z,10.70
2018-10-06T12:47:17.376Z,10.60
2018-10-06T12:49:45.605Z,10.40
2018-10-06T12:52:13.682Z,10.30
2018-10-06T12:54:41.934Z,10.40
2018-10-06T12:57:10.006Z,10.40
2018-10-06T12:59:38.138Z,10.60
2018-10-06T13:02:07.086Z,10.60
2018-10-06T13:04:35.197Z,10.50
2018-10-06T13:07:03.450Z,10.50
2018-10-06T13:09:32.663Z,10.60
2018-10-06T13:12:00.794Z,10.60
2018-10-06T13:14:28.894Z,10.60
2018-10-06T13:16:57.064Z,10.60
2018-10-06T13:19:25.219Z,10.60
2018-10-06T13:21:53.314Z,10.60
2018-10-06T13:24:21.398Z,10.50
2018-10-06T13:26:49.573Z,10.60
2018-10-06T13:29:18.384Z,10.70
2018-10-06T13:31:46.444Z,10.70
2018-10-06T13:34:14.906Z,10.60
2018-10-06T13:36:43.041Z,10.60
2018-10-06T13:39:11.509Z,10.70
2018-10-06T13:41:39.630Z,10.60
2018-10-06T13:44:07.715Z,10.70
2018-10-06T13:46:35.955Z,10.60
2018-10-06T13:49:04.174Z,10.70
2018-10-06T13:51:32.372Z,10.70
2018-10-06T13:54:00.928Z,10.80
2018-10-06T13:56:29.786Z,10.70
2018-10-06T13:58:57.847Z,10.80
2018-10-06T14:01:26.080Z,10.80
2018-10-06T14:03:54.181Z,10.80
2018-10-06T14:06:22.281Z,10.60
2018-10-06T14:08:50.378Z,10.70
2018-10-06T14:11:18.641Z,10.60
2018-10-06T14:13:46.742Z,10.60
2018-10-06T14:16:14.790Z,10.70
2018-10-06T14:18:42.919Z,10.40
2018-10-06T14:21:11.162Z,10.40
2018-10-06T14:23:39.321Z,10.40
2018-10-06T14:26:08.202Z,10.50
2018-10-06T14:28:37.203Z,10.40
2018-10-06T14:31:05.674Z,10.50
2018-10-06T14:33:33.756Z,10.50
2018-10-06T14:36:02.557Z,10.50
2018-10-06T14:38:30.694Z,10.40
2018-10-06T14:40:59.616Z,10.50
2018-10-06T14:43:27.682Z,10.50
2018-10-06T14:45:55.767Z,10.30
2018-10-06T14:48:23.987Z,10.30
2018-10-06T14:50:52.388Z,10.20
2018-10-06T14:53:20.766Z,10.20
2018-10-06T14:55:49.032Z,10.30
2018-10-06T14:58:17.794Z,10.20
2018-10-06T15:00:45.877Z,10.20
2018-10-06T15:03:14.475Z,10.10
2018-10-06T15:05:42.639Z,10.20
2018-10-06T15:08:10.916Z,10.10
2018-10-06T15:10:39.062Z,10.00
2018-10-06T15:13:07.123Z,10.00
2018-10-06T15:15:35.224Z,10.00
2018-10-06T15:18:03.366Z,10.00
2018-10-06T15:20:31.446Z,9.80
2018-10-06T15:22:59.599Z,9.80
2018-10-06T15:25:27.676Z,9.80
2018-10-06T15:27:55.905Z,9.70
2018-10-06T15:30:24.544Z,9.70
2018-10-06T15:32:52.871Z,9.80
2018-10-06T15:35:20.941Z,9.70
2018-10-06T15:37:50.378Z,9.70
2018-10-06T15:40:18.499Z,9.60
2018-10-06T15:42:46.771Z,9.60
2018-10-06T15:45:15.919Z,9.60
2018-10-06T15:47:44.302Z,9.60
2018-10-06T15:50:13.300Z,9.50
2018-10-06T15:52:41.470Z,9.50
2018-10-06T15:55:09.643Z,9.50
2018-10-06T15:57:38.119Z,9.40
2018-10-06T16:00:06.207Z,9.30
2018-10-06T16:02:34.406Z,9.30
2018-10-06T16:05:02.650Z,9.20
2018-10-06T16:07:30.749Z,9.10
2018-10-06T16:09:58.933Z,9.10
2018-10-06T16:12:27.627Z,9.00
2018-10-06T16:14:55.788Z,9.00
2018-10-06T16:17:24.082Z,9.10
2018-10-06T16:19:52.265Z,9.10
2018-10-06T16:22:20.381Z,9.00
2018-10-06T16:24:48.484Z,9.00
2018-10-06T16:27:16.589Z,9.00
2018-10-06T16:29:44.747Z,8.90
2018-10-06T16:32:13.815Z,8.80
2018-10-06T16:34:41.950Z,8.80
2018-10-06T16:37:10.208Z,8.70
2018-10-06T16:39:39.319Z,8.80
2018-10-06T16:42:08.087Z,8.80
2018-10-06T16:44:36.419Z,8.70
2018-10-06T16:47:04.563Z,8.70
2018-10-06T16:49:33.055Z,8.70
2018-10-06T16:52:01.282Z,8.70
2018-10-06T16:54:29.636Z,8.70
2018-10-06T16:57:00.455Z,8.60
2018-10-06T16:59:29.341Z,8.60
2018-10-06T17:01:57.527Z,8.60
2018-10-06T17:04:25.689Z,8.50
2018-10-06T17:06:53.992Z,8.50
2018-10-06T17:09:22.819Z,8.50
2018-10-06T17:11:51.031Z,8.50
2018-10-06T17:14:19.207Z,8.40
2018-10-06T17:16:47.309Z,8.40
2018-10-06T17:19:16.365Z,8.40
2018-10-06T17:21:44.511Z,8.40
2018-10-06T17:24:12.635Z,8.40
2018-10-06T17:26:40.759Z,8.40
2018-10-06T17:29:08.873Z,8.30
2018-10-06T17:31:37.031Z,8.30
2018-10-06T17:34:05.233Z,8.20
2018-10-06T17:36:33.246Z,8.20
2018-10-06T17:39:01.429Z,8.10
2018-10-06T17:41:29.695Z,8.10
2018-10-06T17:43:57.804Z,8.10
2018-10-06T17:46:26.055Z,8.10
2018-10-06T17:48:54.123Z,8.10
2018-10-06T17:51:22.218Z,8.10
2018-10-06T17:53:50.838Z,8.00
2018-10-06T17:56:21.134Z,8.00
2018-10-06T17:58:50.176Z,8.00
2018-10-06T18:01:18.334Z,7.90
2018-10-06T18:03:47.130Z,7.90
2018-10-06T18:06:15.158Z,7.80
2018-10-06T18:08:43.286Z,7.80
2018-10-06T18:11:11.427Z,7.70
2018-10-06T18:13:39.618Z,7.70
2018-10-06T18:16:07.694Z,7.70
2018-10-06T18:18:35.819Z,7.70
2018-10-06T18:21:04.224Z,7.70
2018-10-06T18:23:32.328Z,7.70
2018-10-06T18:26:00.450Z,7.70
2018-10-06T18:28:28.617Z,7.60
2018-10-06T18:30:56.706Z,7.50
2018-10-06T18:33:24.788Z,7.40
2018-10-06T18:35:54.173Z,7.40
2018-10-06T18:38:22.319Z,7.30
2018-10-06T18:40:50.577Z,7.30
2018-10-06T18:43:18.713Z,7.40
2018-10-06T18:45:47.083Z,7.30
2018-10-06T18:48:15.346Z,7.30
2018-10-06T18:50:43.643Z,7.30
2018-10-06T18:53:11.714Z,7.10
2018-10-06T18:55:39.874Z,7.20
2018-10-06T18:58:08.032Z,7.20
2018-10-06T19:00:36.126Z,7.20
2018-10-06T19:03:04.637Z,7.20
2018-10-06T19:05:32.978Z,7.20
2018-10-06T19:08:01.383Z,7.20
2018-10-06T19:10:29.543Z,7.20
2018-10-06T19:12:58.056Z,7.20
2018-10-06T19:15:26.225Z,7.20
2018-10-06T19:17:54.388Z,7.20
2018-10-06T19:20:23.598Z,7.20
2018-10-06T19:22:51.891Z,7.20
2018-10-06T19:25:20.001Z,7.10
2018-10-06T19:27:48.173Z,7.10
2018-10-06T19:30:16.424Z,7.10
2018-10-06T19:32:45.343Z,7.10
2018-10-06T19:35:13.404Z,7.20
2018-10-06T19:37:42.491Z,7.10
2018-10-06T19:40:10.619Z,7.20
2018-10-06T19:42:38.686Z,7.10
2018-10-06T19:45:06.779Z,7.20
2018-10-06T19:47:35.905Z,7.00
2018-10-06T19:50:04.273Z,7.00
2018-10-06T19:52:32.420Z,7.00
2018-10-06T19:55:00.776Z,7.10
2018-10-06T19:57:28.867Z,7.00
2018-10-06T19:59:57.086Z,7.00
2018-10-06T20:02:26.006Z,7.00
2018-10-06T20:04:54.104Z,7.00
2018-10-06T20:07:22.252Z,7.00
2018-10-06T20:09:50.807Z,7.10
2018-10-06T20:12:18.963Z,7.10
2018-10-06T20:14:47.056Z,7.10
2018-10-06T20:17:16.086Z,7.00
2018-10-06T20:19:44.267Z,7.00
2018-10-06T20:22:12.776Z,6.90
2018-10-06T20:24:40.959Z,7.00
2018-10-06T20:27:09.378Z,7.00
2018-10-06T20:29:37.655Z,6.90
2018-10-06T20:32:06.100Z,6.90
2018-10-06T20:34:34.258Z,7.00
2018-10-06T20:37:02.894Z,7.00
2018-10-06T20:39:31.026Z,7.00
2018-10-06T20:41:59.536Z,7.00
2018-10-06T20:44:27.983Z,6.90
2018-10-06T20:46:56.099Z,6.80
2018-10-06T20:49:24.893Z,6.80
2018-10-06T20:51:53.147Z,6.80
2018-10-06T20:54:21.866Z,6.80
2018-10-06T20:56:50.738Z,6.80
2018-10-06T20:59:18.873Z,6.70
2018-10-06T21:01:47.010Z,6.60
2018-10-06T21:04:15.090Z,6.70
2018-10-06T21:06:43.878Z,6.70
2018-10-06T21:09:13.111Z,6.70
2018-10-06T21:11:42.006Z,6.70
2018-10-06T21:14:10.090Z,6.70
2018-10-06T21:16:38.524Z,6.60
2018-10-06T21:19:07.309Z,6.70
2018-10-06T21:21:35.479Z,6.60
2018-10-06T21:24:03.647Z,6.70
2018-10-06T21:26:32.450Z,6.70
2018-10-06T21:29:00.623Z,6.60
2018-10-06T21:31:28.749Z,6.60
2018-10-06T21:33:57.006Z,6.60
2018-10-06T21:36:25.218Z,6.60
2018-10-06T21:38:53.417Z,6.60
2018-10-06T21:41:22.491Z,6.60
2018-10-06T21:43:51.628Z,6.50
2018-10-06T21:46:20.662Z,6.50
2018-10-06T21:48:48.837Z,6.50
2018-10-06T21:51:18.110Z,6.50
2018-10-06T21:53:46.139Z,6.50
2018-10-06T21:56:14.422Z,6.40
2018-10-06T21:58:42.775Z,6.40
2018-10-06T22:01:11.996Z,6.30
2018-10-06T22:03:40.694Z,6.30
2018-10-06T22:06:08.885Z,6.40
2018-10-06T22:08:37.080Z,6.40
2018-10-06T22:11:05.306Z,6.40
2018-10-06T22:13:33.436Z,6.40
2018-10-06T22:16:01.631Z,6.30
2018-10-06T22:18:29.832Z,6.30
2018-10-06T22:20:57.946Z,6.30
2018-10-06T22:23:26.244Z,6.30
2018-10-06T22:25:54.585Z,6.30
2018-10-06T22:28:22.806Z,6.30
2018-10-06T22:30:51.369Z,6.30
2018-10-06T22:33:19.611Z,6.30
2018-10-06T22:35:47.727Z,6.30
2018-10-06T22:38:16.003Z,6.30
2018-10-06T22:40:44.042Z,6.20
2018-10-06T22:43:12.150Z,6.30
2018-10-06T22:45:40.308Z,6.20
2018-10-06T22:48:08.480Z,6.30
2018-10-06T22:50:37.516Z,6.20
2018-10-06T22:53:05.770Z,6.20
2018-10-06T22:55:33.966Z,6.20
2018-10-06T22:58:02.049Z,6.20
2018-10-06T23:00:30.228Z,6.20
2018-10-06T23:02:58.384Z,6.20
2018-10-06T23:05:26.489Z,6.30
2018-10-06T23:07:54.822Z,6.30
2018-10-06T23:10:23.206Z,6.30
2018-10-06T23:12:51.542Z,6.30
2018-10-06T23:15:19.711Z,6.30
2018-10-06T23:17:48.451Z,6.30
2018-10-06T23:20:16.698Z,6.30
2018-10-06T23:22:45.350Z,6.40
2018-10-06T23:25:14.197Z,6.40
2018-10-06T23:27:42.698Z,6.40
2018-10-06T23:30:11.027Z,6.40
2018-10-06T23:32:39.125Z,6.30
2018-10-06T23:35:07.232Z,6.20
2018-10-06T23:37:36.343Z,6.20
2018-10-06T23:40:04.558Z,6.30
2018-10-06T23:42:32.646Z,6.30
2018-10-06T23:45:00.959Z,6.30
2018-10-06T23:47:29.681Z,6.30
2018-10-06T23:49:57.854Z,6.30
2018-10-06T23:52:25.979Z,6.30
2018-10-06T23:54:54.074Z,6.30
2018-10-06T23:57:22.207Z,6.30
2018-10-06T23:59:50.298Z,6.20
